createdAt,value
2018-05-10T00:00:49.729Z,62.10
2018-05-10T00:05:52.226Z,62.10
2018-05-10T00:10:54.665Z,62.30
2018-05-10T00:15:57.209Z,62.10
2018-05-10T00:20:59.701Z,62.20
2018-05-10T00:26:02.149Z,62.60
2018-05-10T00:31:04.596Z,63.30
2018-05-10T00:36:07.045Z,63.70
2018-05-10T00:41:10.249Z,64.20
2018-05-10T00:46:14.249Z,64.60
2018-05-10T00:51:16.702Z,64.60
2018-05-10T00:56:19.909Z,65.60
2018-05-10T01:01:23.137Z,66.10
2018-05-10T01:06:25.582Z,65.90
2018-05-10T01:11:28.118Z,66.60
2018-05-10T01:16:31.076Z,66.80
2018-05-10T01:21:33.527Z,66.70
2018-05-10T01:26:36.013Z,66.80
2018-05-10T01:31:38.497Z,67.00
2018-05-10T01:36:40.942Z,67.10
2018-05-10T01:41:43.489Z,67.70
2018-05-10T01:46:45.938Z,68.40
2018-05-10T01:51:48.377Z,68.60
2018-05-10T01:56:50.829Z,68.60
2018-05-10T02:01:54.037Z,69.70
2018-05-10T02:06:57.259Z,69.80
2018-05-10T02:12:00.513Z,70.60
2018-05-10T02:17:02.977Z,70.50
2018-05-10T02:22:05.421Z,71.00
2018-05-10T02:27:07.872Z,71.90
2018-05-10T02:32:10.313Z,71.20
2018-05-10T02:37:12.770Z,71.40
2018-05-10T02:42:15.205Z,71.20
2018-05-10T02:47:17.746Z,70.80
2018-05-10T02:52:20.242Z,71.00
2018-05-10T02:57:22.735Z,71.00
2018-05-10T03:02:25.181Z,70.80
2018-05-10T03:07:27.629Z,70.60
2018-05-10T03:12:30.085Z,70.40
2018-05-10T03:17:32.526Z,70.50
2018-05-10T03:22:34.994Z,70.40
2018-05-10T03:27:37.470Z,70.40
2018-05-10T03:32:39.917Z,70.50
2018-05-10T03:37:42.365Z,70.80
2018-05-10T03:42:44.810Z,70.80
2018-05-10T03:47:48.824Z,71.20
2018-05-10T03:52:51.381Z,71.10
2018-05-10T03:57:53.828Z,71.40
2018-05-10T04:08:46.885Z,71.50
2018-05-10T04:13:49.329Z,71.30
2018-05-10T04:18:51.809Z,71.40
2018-05-10T04:23:54.245Z,71.50
2018-05-10T04:28:57.477Z,72.00
2018-05-10T04:33:59.927Z,71.80
2018-05-10T04:39:02.373Z,72.40
2018-05-10T04:44:04.857Z,72.90
2018-05-10T04:49:07.325Z,73.40
2018-05-10T04:54:10.540Z,73.90
2018-05-10T04:59:13.868Z,73.80
2018-05-10T05:04:16.315Z,73.60
2018-05-10T05:09:19.264Z,73.80
2018-05-10T05:14:21.713Z,73.60
2018-05-10T05:19:24.245Z,73.60
2018-05-10T05:24:26.741Z,73.60
2018-05-10T05:29:29.237Z,73.40
2018-05-10T05:34:31.729Z,73.40
2018-05-10T05:39:34.730Z,73.30
2018-05-10T05:44:37.181Z,72.90
2018-05-10T05:49:39.717Z,72.50
2018-05-10T05:54:42.213Z,72.10
2018-05-10T05:59:44.662Z,71.80
2018-05-10T06:04:47.881Z,71.50
2018-05-10T06:09:50.325Z,71.40
2018-05-10T06:14:52.781Z,70.70
2018-05-10T06:19:55.997Z,70.90
2018-05-10T06:24:59.963Z,70.70
2018-05-10T06:30:02.302Z,70.50
2018-05-10T06:35:05.522Z,70.30
2018-05-10T06:40:08.753Z,70.30
2018-05-10T06:45:11.965Z,70.20
2018-05-10T06:50:14.417Z,70.10
2018-05-10T06:55:16.870Z,70.20
2018-05-10T07:00:19.368Z,70.90
2018-05-10T07:05:21.809Z,69.70
2018-05-10T07:10:25.021Z,69.30
2018-05-10T07:15:28.333Z,69.30
2018-05-10T07:20:31.561Z,69.50
2018-05-10T07:25:34.009Z,69.30
2018-05-10T07:30:36.462Z,69.50
2018-05-10T07:35:38.915Z,69.50
2018-05-10T07:40:42.129Z,70.40
2018-05-10T07:45:45.334Z,69.50
2018-05-10T07:50:48.549Z,69.50
2018-05-10T07:55:51.761Z,69.20
2018-05-10T08:00:54.980Z,68.90
2018-05-10T08:05:58.193Z,68.30
2018-05-10T08:11:00.693Z,68.20
2018-05-10T08:16:03.145Z,68.30
2018-05-10T08:21:05.678Z,68.20
2018-05-10T08:26:08.125Z,68.30
2018-05-10T08:31:12.083Z,68.50
2018-05-10T08:36:16.005Z,68.20
2018-05-10T08:41:19.275Z,67.80
2018-05-10T08:46:21.832Z,67.70
2018-05-10T08:51:24.293Z,66.30
2018-05-10T08:56:27.513Z,64.80
2018-05-10T09:01:30.748Z,63.90
2018-05-10T09:06:33.193Z,63.90
2018-05-10T09:11:35.731Z,63.40
2018-05-10T09:16:38.182Z,63.20
2018-05-10T09:21:41.429Z,63.50
2018-05-10T09:26:43.874Z,63.60
2018-05-10T09:31:46.328Z,63.40
2018-05-10T09:36:48.782Z,63.50
2018-05-10T09:41:51.994Z,63.00
2018-05-10T09:46:55.214Z,63.00
2018-05-10T09:51:58.546Z,62.60
2018-05-10T09:57:01.037Z,62.60
2018-05-10T10:02:03.530Z,62.50
2018-05-10T10:07:06.026Z,62.70
2018-05-10T10:12:08.468Z,62.60
2018-05-10T10:17:11.689Z,62.00
2018-05-10T10:22:14.898Z,61.30
2018-05-10T10:27:17.443Z,61.20
2018-05-10T10:32:19.934Z,60.40
2018-05-10T10:37:23.828Z,59.90
2018-05-10T10:42:27.061Z,59.70
2018-05-10T10:47:29.509Z,59.60
2018-05-10T10:52:32.717Z,59.50
2018-05-10T10:57:35.165Z,59.50
2018-05-10T11:02:37.650Z,59.60
2018-05-10T11:07:40.137Z,59.10
2018-05-10T11:12:42.590Z,59.20
2018-05-10T11:17:45.806Z,59.10
2018-05-10T11:22:48.253Z,59.10
2018-05-10T11:27:50.705Z,59.70
2018-05-10T11:32:54.011Z,58.80
2018-05-10T11:37:57.142Z,58.50
2018-05-10T11:42:59.672Z,58.40
2018-05-10T11:48:02.190Z,58.50
2018-05-10T11:53:05.412Z,58.20
2018-05-10T11:58:07.857Z,58.20
2018-05-10T12:03:10.306Z,57.50
2018-05-10T12:08:13.522Z,58.40
2018-05-10T12:13:16.733Z,59.00
2018-05-10T12:18:19.954Z,59.00
2018-05-10T12:23:22.451Z,58.90
2018-05-10T12:28:24.951Z,58.70
2018-05-10T12:33:27.405Z,58.80
2018-05-10T12:38:29.861Z,59.40
2018-05-10T12:43:32.714Z,59.90
2018-05-10T12:48:35.981Z,61.10
2018-05-10T12:53:38.448Z,60.10
2018-05-10T12:58:40.931Z,60.00
2018-05-10T13:03:43.428Z,59.70
2018-05-10T13:08:45.870Z,59.30
2018-05-10T13:13:49.130Z,59.80
2018-05-10T13:18:51.573Z,59.80
2018-05-10T13:23:54.788Z,59.10
2018-05-10T13:28:58.797Z,58.50
2018-05-10T13:34:01.957Z,57.90
2018-05-10T13:39:04.409Z,57.80
2018-05-10T13:44:06.849Z,57.30
2018-05-10T13:49:09.301Z,56.70
2018-05-10T13:54:13.368Z,54.70
2018-05-10T13:59:15.866Z,54.60
2018-05-10T14:04:18.645Z,53.80
2018-05-10T14:09:21.868Z,53.90
2018-05-10T14:14:25.190Z,53.90
2018-05-10T14:19:27.687Z,53.90
2018-05-10T14:24:30.133Z,54.30
2018-05-10T14:29:32.670Z,54.20
2018-05-10T14:34:35.160Z,54.10
2018-05-10T14:39:37.653Z,54.30
2018-05-10T14:44:40.149Z,54.20
2018-05-10T14:49:42.614Z,52.30
2018-05-10T14:54:45.827Z,52.40
2018-05-10T14:59:49.123Z,53.60
2018-05-10T15:04:52.273Z,54.10
2018-05-10T15:09:54.799Z,54.10
2018-05-10T15:14:57.230Z,54.30
2018-05-10T15:20:00.473Z,54.00
2018-05-10T15:25:03.065Z,53.90
2018-05-10T15:30:06.365Z,53.60
2018-05-10T15:35:09.508Z,53.60
2018-05-10T15:40:11.948Z,53.00
2018-05-10T15:45:15.163Z,52.30
2018-05-10T15:50:18.375Z,51.90
2018-05-10T15:55:21.607Z,52.50
2018-05-10T16:00:24.083Z,52.40
2018-05-10T16:05:27.368Z,50.70
2018-05-10T16:10:29.810Z,50.50
2018-05-10T16:15:32.949Z,50.10
2018-05-10T16:20:35.403Z,50.20
2018-05-10T16:25:37.841Z,50.60
2018-05-10T16:30:40.385Z,51.40
2018-05-10T16:35:42.835Z,52.90
2018-05-10T16:40:45.294Z,53.90
2018-05-10T16:45:47.845Z,54.70
2018-05-10T16:50:51.850Z,56.20
2018-05-10T16:55:54.340Z,56.10
2018-05-10T17:00:56.777Z,56.70
2018-05-10T17:05:59.227Z,57.30
2018-05-10T17:11:01.732Z,57.70
2018-05-10T17:16:04.949Z,59.00
2018-05-10T17:21:08.186Z,59.20
2018-05-10T17:26:10.707Z,58.60
2018-05-10T17:31:13.174Z,58.70
2018-05-10T17:36:16.426Z,59.30
2018-05-10T17:41:18.925Z,59.80
2018-05-10T17:46:21.490Z,59.50
2018-05-10T17:51:23.983Z,59.80
2018-05-10T17:56:37.369Z,60.00
2018-05-10T18:01:47.117Z,60.80
2018-05-10T18:06:49.573Z,60.70
2018-05-10T18:11:52.048Z,61.20
2018-05-10T18:22:26.838Z,61.70
2018-05-10T18:27:30.053Z,62.50
2018-05-10T18:32:32.548Z,62.50
2018-05-10T18:37:35.789Z,63.10
2018-05-10T18:42:38.250Z,63.00
2018-05-10T18:47:41.458Z,63.50
2018-05-10T18:52:43.900Z,63.40
2018-05-10T18:57:46.461Z,63.60
2018-05-10T19:02:48.941Z,63.90
2018-05-10T19:07:52.203Z,64.20
2018-05-10T19:12:54.669Z,64.20
2018-05-10T19:17:57.112Z,65.10
2018-05-10T19:22:59.585Z,64.50
2018-05-10T19:28:02.116Z,64.70
2018-05-10T19:33:05.353Z,65.00
2018-05-10T19:38:07.843Z,65.00
2018-05-10T19:43:10.340Z,65.20
2018-05-10T19:48:12.790Z,65.30
2018-05-10T19:53:16.189Z,66.30
2018-05-10T19:58:18.729Z,65.70
2018-05-10T20:03:21.184Z,66.10
2018-05-10T20:08:23.866Z,66.20
2018-05-10T20:13:26.390Z,66.10
2018-05-10T20:18:30.509Z,66.80
2018-05-10T20:23:33.136Z,66.60
2018-05-10T20:28:35.624Z,66.90
2018-05-10T20:33:38.077Z,68.20
2018-05-10T20:38:40.534Z,68.00
2018-05-10T20:43:42.978Z,68.90
2018-05-10T20:48:46.237Z,71.00
2018-05-10T20:53:48.714Z,70.20
2018-05-10T20:58:51.165Z,71.50
2018-05-10T21:03:53.608Z,70.60
2018-05-10T21:08:56.076Z,70.50
2018-05-10T21:13:59.303Z,70.60
2018-05-10T21:19:01.756Z,71.30
2018-05-10T21:24:04.203Z,71.10
2018-05-10T21:29:06.674Z,71.40
2018-05-10T21:34:09.380Z,71.50
2018-05-10T21:39:11.829Z,71.70
2018-05-10T21:44:14.275Z,72.20
2018-05-10T21:49:28.832Z,72.70
2018-05-10T21:54:31.289Z,73.20
2018-05-10T21:59:33.741Z,73.30
2018-05-10T22:04:36.195Z,73.60
2018-05-10T22:09:39.436Z,74.40
2018-05-10T22:14:42.477Z,74.40
2018-05-10T22:19:51.794Z,74.70
2018-05-10T22:24:54.233Z,74.60
2018-05-10T22:29:56.776Z,75.40
2018-05-10T22:34:59.166Z,75.50
2018-05-10T22:40:24.150Z,75.60
2018-05-10T22:45:26.673Z,75.60
2018-05-10T22:50:29.133Z,76.50
2018-05-10T22:55:31.593Z,75.90
2018-05-10T23:00:34.042Z,76.10
2018-05-10T23:05:36.486Z,76.20
2018-05-10T23:10:53.323Z,76.00
2018-05-10T23:15:55.774Z,75.90
2018-05-10T23:20:58.235Z,76.20
2018-05-10T23:26:01.470Z,76.10
2018-05-10T23:31:03.938Z,76.00
2018-05-10T23:36:07.168Z,76.40
2018-05-10T23:41:09.623Z,77.10
2018-05-10T23:46:12.178Z,75.80
2018-05-10T23:51:14.622Z,75.40
2018-05-10T23:56:17.838Z,75.80
